Latest Weather Observations for Parafield

IDS60801

Issued at 11:02 am CST Monday 25 May 2015 (issued every 30 minutes, with the page automatically refreshed every 10 minutes)

About weather observations | Map of weather stations | Latest weather observations for SA | Other Formats
Station Details ID: 023013 Name: PARAFIELD AIRPORT Lat: -34.80 Lon: 138.63 Height: 9.5 m
Data from the previous 72 hours. | See also: Recent months at Parafield
Date/Time
CST
Temp
°C
App
Temp
°C
Dew
Point
Rel
Hum
%
Delta-T
°C
Wind Press
QNH
hPa
Press
MSL
hPa
Rain
since 9 am
mm
Dir
 
Spd
km/h
Gust
km/h
Spd
kts
Gust
kts
25/10:30am 17.6 15.1 8.2 54 4.8 N 11 15 6 8 1028.8 1028.8 0.0
25/10:00am 17.1 15.2 7.7 54 4.7 N 7 11 4 6 1029.0 1029.0 0.0
25/09:30am 16.0 15.7 8.7 62 3.7 CALM 0 0 0 0 1029.2 1029.2 0.0
25/09:00am 14.6 14.5 9.6 72 2.6 CALM 0 0 0 0 1029.2 1029.2 0.0
25/08:30am 10.9 10.7 9.2 89 0.8 CALM 0 0 0 0 1029.2 1029.2 0.0
25/08:00am 10.8 9.3 8.6 86 1.1 ENE 6 6 3 3 1029.1 1029.1 0.0
25/07:30am 9.8 9.2 7.2 84 1.2 CALM 0 0 0 0 1029.0 1029.0 0.0
25/07:00am 10.1 9.5 7.2 82 1.4 CALM 0 0 0 0 1028.8 1028.8 0.0
25/06:30am 11.3 10.8 7.8 79 1.7 CALM 0 0 0 0 1028.3 1028.3 0.0
25/06:00am 12.5 11.9 7.4 71 2.5 CALM 0 4 0 2 1028.1 1028.1 0.0
25/05:30am 12.3 10.1 7.8 74 2.2 NE 9 11 5 6 1027.9 1027.9 0.0
25/05:00am 12.6 10.0 7.9 73 2.3 NE 11 11 6 6 1027.7 1027.7 0.0
25/04:30am 12.9 9.5 7.8 71 2.5 NE 15 17 8 9 1027.7 1027.7 0.0
25/04:00am 12.7 9.3 7.8 72 2.4 NE 15 17 8 9 1027.7 1027.7 0.0
25/03:30am 11.2 9.1 8.4 83 1.4 NE 9 13 5 7 1027.9 1027.9 0.0
25/03:00am 10.9 10.2 8.5 85 1.2 SE 2 6 1 3 1028.3 1028.3 0.0
25/02:30am 10.3 8.6 8.2 87 1.0 SSW 7 9 4 5 1028.7 1028.7 0.0
25/02:00am 11.4 11.0 8.4 82 1.5 CALM 0 0 0 0 1028.6 1028.6 0.0
25/01:30am 11.1 10.7 8.1 82 1.5 CALM 0 0 0 0 1028.5 1028.5 0.0
25/01:00am 10.9 10.4 8.0 82 1.4 CALM 0 0 0 0 1028.4 1028.4 0.0
25/12:30am 11.7 9.8 7.6 76 2.0 E 7 7 4 4 1028.3 1028.3 0.0
25/12:00am 11.4 9.5 7.7 78 1.8 NE 7 9 4 5 1028.5 1028.5 0.0
 
Date/Time
CST
Temp
°C
App
Temp
°C
Dew
Point
Rel
Hum
%
Delta-T
°C
Wind Press
QNH
hPa
Press
MSL
hPa
Rain
since 9 am
mm
Dir
 
Spd
km/h
Gust
km/h
Spd
kts
Gust
kts
24/11:30pm 11.1 9.5 8.1 82 1.5 NE 6 9 3 5 1028.6 1028.6 0.0
24/11:00pm 11.3 10.5 8.2 81 1.5 ESE 2 6 1 3 1028.3 1028.3 0.0
24/10:30pm 12.2 10.4 8.1 76 2.0 N 7 9 4 5 1028.5 1028.5 0.0
24/10:00pm 11.3 9.8 8.5 83 1.4 ENE 6 7 3 4 1028.5 1028.5 0.0
24/09:30pm 12.0 9.6 8.5 79 1.7 NE 11 13 6 7 1028.6 1028.6 0.0
24/09:00pm 11.9 10.2 8.4 79 1.7 N 7 7 4 4 1028.5 1028.5 0.0
24/08:30pm 12.0 9.6 8.7 80 1.6 N 11 13 6 7 1027.9 1027.9 0.0
24/08:00pm 11.7 10.3 8.7 82 1.5 ENE 6 9 3 5 1027.7 1027.7 0.0
24/07:30pm 11.7 9.0 8.9 83 1.4 SE 13 13 7 7 1028.0 1028.0 0.0
24/07:00pm 12.1 11.0 8.6 79 1.7 NNE 4 7 2 4 1028.8 1028.8 0.0
24/06:30pm 12.6 10.7 8.9 78 1.8 NNE 9 9 5 5 1028.7 1028.7 0.0
24/06:00pm 12.6 10.7 8.9 78 1.8 NE 9 9 5 5 1028.4 1028.4 0.0
24/05:30pm 13.5 12.1 9.4 76 2.1 ENE 7 7 4 4 1028.1 1028.1 0.0
24/05:00pm 13.7 12.2 9.0 73 2.4 ENE 7 7 4 4 1027.7 1027.7 0.0
24/04:30pm 14.6 13.2 9.0 69 2.8 NNE 6 7 3 4 1028.0 1028.0 0.0
24/04:00pm 15.0 13.4 8.9 67 3.1 N 7 9 4 5 1027.9 1027.9 0.0
24/03:30pm 15.5 14.0 8.5 63 3.5 N 6 7 3 4 1027.7 1027.7 0.0
24/03:00pm 15.9 14.0 7.7 58 4.1 N 7 9 4 5 1027.7 1027.7 0.0
24/02:30pm 15.6 13.7 7.6 59 4.0 NNE 7 9 4 5 1027.5 1027.5 0.0
24/02:00pm 15.6 13.7 9.1 65 3.3 N 9 11 5 6 1027.8 1027.8 0.0
24/01:30pm 15.8 13.8 8.5 62 3.7 NNW 9 13 5 7 1027.8 1027.8 0.0
24/01:00pm 15.8 12.6 7.0 56 4.3 N 13 17 7 9 1028.0 1028.0 0.0
24/12:30pm 17.0 13.9 7.4 53 4.8 N 13 20 7 11 1028.3 1028.3 0.0
24/12:00pm 16.1 12.3 6.0 51 4.9 N 15 22 8 12 1028.6 1028.6 0.0
24/11:30am 16.2 13.0 8.4 60 3.9 N 15 20 8 11 1028.8 1028.8 0.0
24/11:00am 15.6 11.9 7.9 60 3.9 NNE 17 24 9 13 1029.0 1029.0 0.0
24/10:30am 13.9 10.8 7.4 65 3.2 N 13 15 7 8 1029.1 1029.1 0.0
24/10:00am 14.0 10.9 7.1 63 3.4 NNE 13 17 7 9 1029.1 1029.1 0.0
24/09:30am 14.7 12.7 7.0 60 3.7 NNE 7 9 4 5 1029.3 1029.3 0.0
24/09:00am 13.1 11.5 8.2 72 2.4 NW 6 7 3 4 1029.2 1029.2 0.0
24/08:30am 10.1 8.2 7.7 85 1.1 W 7 9 4 5 1029.0 1029.0 0.0
24/08:00am 10.1 7.2 6.3 77 1.8 NNE 11 15 6 8 1028.6 1028.6 0.0
24/07:30am 9.3 6.0 6.2 81 1.4 NE 13 17 7 9 1028.3 1028.3 0.0
24/07:00am 8.3 4.4 5.4 82 1.3 NE 15 17 8 9 1028.4 1028.4 0.0
24/06:30am 9.0 5.6 5.7 80 1.5 NE 13 15 7 8 1028.3 1028.3 0.0
24/06:00am 8.7 4.9 5.6 81 1.4 NE 15 17 8 9 1027.9 1027.9 0.0
24/05:30am 8.1 4.5 5.0 81 1.4 NE 13 15 7 8 1027.8 1027.8 0.0
24/05:00am 8.8 4.6 5.7 81 1.4 NE 17 19 9 10 1027.7 1027.7 0.0
24/04:30am 9.4 4.9 6.1 80 1.5 NE 19 22 10 12 1027.5 1027.5 0.0
24/04:00am 8.7 4.7 6.5 86 1.0 NE 17 19 9 10 1027.4 1027.4 0.0
24/03:55am 8.8 5.2 6.9 88 0.9 NE 15 19 8 10 1027.4 1027.4 0.0
24/03:30am 3.8 1.9 3.1 95 0.3 NE 2 7 1 4 1027.7 1027.7 0.0
24/03:12am 4.1 2.7 3.4 95 0.3 CALM 0 0 0 0 1027.8 1027.8 0.0
24/03:00am 4.6 3.3 4.0 96 0.2 CALM 0 0 0 0 1028.0 1028.0 0.0
24/02:30am 4.5 3.1 3.8 95 0.3 CALM 0 0 0 0 1027.9 1027.9 0.0
24/02:11am 4.5 3.1 3.6 94 0.4 CALM 0 0 0 0 1028.0 1028.0 0.0
24/02:00am 5.5 4.3 4.6 94 0.4 CALM 0 0 0 0 1028.0 1028.0 0.0
24/01:30am 5.5 4.3 4.5 93 0.4 CALM 0 0 0 0 1028.2 1028.2 0.0
24/01:00am 5.9 4.7 4.5 91 0.6 CALM 0 0 0 0 1028.2 1028.2 0.0
24/12:30am 6.5 5.4 5.3 92 0.5 CALM 0 0 0 0 1028.4 1028.4 0.0
24/12:00am 7.5 6.7 6.4 93 0.5 CALM 0 0 0 0 1028.6 1028.6 0.0
 
Date/Time
CST
Temp
°C
App
Temp
°C
Dew
Point
Rel
Hum
%
Delta-T
°C
Wind Press
QNH
hPa
Press
MSL
hPa
Rain
since 9 am
mm
Dir
 
Spd
km/h
Gust
km/h
Spd
kts
Gust
kts
23/11:30pm 6.9 5.5 5.5 91 0.6 ESE 2 7 1 4 1028.6 1028.6 0.0
23/11:00pm 7.3 4.6 5.6 89 0.8 E 9 13 5 7 1028.6 1028.6 0.0
23/10:30pm 9.9 8.4 7.0 82 1.4 NE 4 7 2 4 1028.8 1028.8 0.0
23/10:00pm 11.0 9.0 6.9 76 1.9 N 7 9 4 5 1029.1 1029.1 0.0
23/09:30pm 11.2 8.9 7.5 78 1.8 NNE 9 13 5 7 1029.2 1029.2 0.0
23/09:00pm 11.0 9.3 7.5 79 1.7 ENE 6 7 3 4 1029.0 1029.0 0.0
23/08:30pm 10.5 8.8 7.7 83 1.3 NE 6 7 3 4 1028.8 1028.8 0.0
23/08:00pm 10.4 8.1 7.6 83 1.3 NE 9 11 5 6 1028.9 1028.9 0.0
23/07:30pm 11.8 10.2 8.1 78 1.8 NNE 6 7 3 4 1028.9 1028.9 0.0
23/07:00pm 11.2 9.5 8.2 82 1.5 E 7 11 4 6 1028.7 1028.7 0.0
23/06:30pm 10.3 8.7 7.9 85 1.1 ENE 6 9 3 5 1028.6 1028.6 0.0
23/06:00pm 12.7 11.2 8.4 75 2.1 E 6 7 3 4 1028.6 1028.6 0.0
23/05:30pm 12.9 11.3 8.0 72 2.4 S 6 7 3 4 1028.7 1028.7 0.0
23/05:00pm 13.9 12.2 8.3 69 2.8 SW 7 9 4 5 1028.7 1028.7 0.0
23/04:30pm 15.3 13.7 8.8 65 3.3 SW 7 9 4 5 1028.5 1028.5 0.0
23/04:00pm 15.8 13.8 8.8 63 3.6 W 9 13 5 7 1028.7 1028.7 0.0
23/03:30pm 17.5 16.7 6.7 49 5.3 CALM 0 0 0 0 1028.8 1028.8 0.0
23/03:00pm 17.6 16.0 6.2 47 5.6 NNE 4 11 2 6 1028.9 1028.9 0.0
23/02:30pm 17.5 15.5 7.0 50 5.2 NNW 7 9 4 5 1029.0 1029.0 0.0
23/02:00pm 17.5 15.9 7.8 53 4.9 NNW 6 11 3 6 1029.0 1029.0 0.0
23/01:30pm 17.4 15.5 7.5 52 4.9 N 7 15 4 8 1029.3 1029.3 0.0
23/01:00pm 16.8 15.0 8.0 56 4.5 NNE 7 11 4 6 1029.6 1029.6 0.0
23/12:30pm 16.0 13.8 7.7 58 4.1 N 9 17 5 9 1030.1 1030.1 0.0
23/12:00pm 15.5 13.8 7.5 59 3.9 NE 6 9 3 5 1030.7 1030.7 0.0
23/11:30am 15.3 13.9 7.1 58 4.0 N 4 9 2 5 1031.3 1031.3 0.0
23/11:00am 14.4 13.3 7.0 61 3.6 NE 2 7 1 4 1031.7 1031.7 0.0
23/10:30am 13.2 12.4 6.5 64 3.2 CALM 0 0 0 0 1032.1 1032.1 0.0
23/10:00am 13.0 12.2 6.6 65 3.1 CALM 0 0 0 0 1032.1 1032.1 0.0
23/09:30am 11.0 10.1 6.0 71 2.3 CALM 0 0 0 0 1032.2 1032.2 0.0
23/09:00am 9.7 8.8 6.1 78 1.6 CALM 0 0 0 0 1032.1 1032.1 0.0
23/08:30am 8.6 7.8 6.6 87 0.9 CALM 0 0 0 0 1032.0 1032.0 0.0
23/08:00am 6.0 3.7 4.8 92 0.5 W 6 9 3 5 1032.0 1032.0 0.0
23/07:30am 4.7 1.9 3.4 91 0.5 W 7 7 4 4 1031.8 1031.8 0.0
23/07:00am 5.4 2.7 3.6 88 0.8 WNW 7 9 4 5 1031.5 1031.5 0.0
23/06:30am 7.0 5.3 4.0 81 1.3 NNE 2 7 1 4 1031.2 1031.2 0.0
23/06:00am 7.8 5.2 4.2 78 1.5 E 7 13 4 7 1031.1 1031.1 0.0
23/05:30am 8.1 5.7 4.5 78 1.6 ENE 6 9 3 5 1031.0 1031.0 0.0
23/05:00am 8.1 5.6 4.7 79 1.5 ENE 7 9 4 5 1030.9 1030.9 0.0
23/04:30am 8.2 5.7 4.6 78 1.6 ENE 7 11 4 6 1030.8 1030.8 0.0
23/04:00am 8.2 5.3 4.6 78 1.6 ENE 9 15 5 8 1030.9 1030.9 0.0
23/03:30am 8.8 6.3 4.8 76 1.8 E 7 11 4 6 1031.1 1031.1 0.0
23/03:00am 8.8 5.9 4.6 75 1.8 E 9 15 5 8 1031.3 1031.3 0.0
23/02:30am 8.8 6.3 4.6 75 1.8 E 7 13 4 7 1031.5 1031.5 0.0
23/02:00am 9.2 6.0 5.0 75 1.9 E 11 15 6 8 1031.5 1031.5 0.0
23/01:30am 9.1 6.2 4.9 75 1.9 E 9 17 5 9 1031.6 1031.6 0.0
23/01:00am 9.5 7.3 5.5 76 1.8 NNE 6 9 3 5 1031.5 1031.5 0.0
23/12:30am 6.0 3.9 4.0 87 0.8 N 4 7 2 4 1031.4 1031.4 0.0
23/12:00am 5.4 3.0 4.1 91 0.5 ESE 6 11 3 6 1031.6 1031.6 0.0
 
Date/Time
CST
Temp
°C
App
Temp
°C
Dew
Point
Rel
Hum
%
Delta-T
°C
Wind Press
QNH
hPa
Press
MSL
hPa
Rain
since 9 am
mm
Dir
 
Spd
km/h
Gust
km/h
Spd
kts
Gust
kts
22/11:30pm 6.0 4.5 4.8 92 0.5 NNE 2 6 1 3 1031.8 1031.8 0.0
22/11:00pm 5.5 3.1 4.2 91 0.6 E 6 7 3 4 1031.9 1031.9 0.0
22/10:30pm 6.6 5.1 4.9 89 0.7 ENE 2 7 1 4 1031.8 1031.8 0.0
22/10:00pm 5.6 3.9 4.2 91 0.6 ENE 2 9 1 5 1031.9 1031.9 0.0
22/09:30pm 5.9 3.9 4.5 91 0.6 NE 4 7 2 4 1031.9 1031.9 0.0
22/09:00pm 7.3 6.2 5.3 87 0.9 CALM 0 0 0 0 1031.9 1031.9 0.0
22/08:30pm 6.8 5.5 4.3 84 1.1 CALM 0 0 0 0 1031.8 1031.8 0.0
22/08:00pm 8.3 6.8 4.9 79 1.5 SE 2 6 1 3 1031.8 1031.8 0.0
22/07:30pm 9.5 6.7 5.3 75 1.9 ESE 9 11 5 6 1031.7 1031.7 0.0
22/07:00pm 10.0 7.3 5.4 73 2.1 SE 9 11 5 6 1031.6 1031.6 0.0
22/06:30pm 11.3 7.2 6.0 70 2.4 SE 17 22 9 12 1031.4 1031.4 0.0
22/06:00pm 10.8 7.1 6.2 73 2.1 SSE 15 19 8 10 1031.0 1031.0 0.0
22/05:30pm 11.5 7.8 6.4 71 2.4 SE 15 20 8 11 1031.0 1031.0 0.0
22/05:00pm 12.3 8.0 6.8 69 2.6 SSE 19 24 10 13 1030.9 1030.9 0.0
22/04:30pm 13.4 9.1 7.0 65 3.1 SE 19 24 10 13 1030.8 1030.8 0.0
22/04:00pm 14.1 10.6 7.2 63 3.4 SSE 15 19 8 10 1030.9 1030.9 0.0
22/03:30pm 15.4 12.3 7.4 59 3.9 SSE 13 17 7 9 1030.7 1030.7 0.0
22/03:00pm 15.2 13.3 7.5 60 3.8 SE 7 11 4 6 1030.7 1030.7 0.0
22/02:30pm 16.0 15.2 8.2 60 3.9 WNW 2 7 1 4 1030.6 1030.6 0.0
22/02:00pm 15.2 12.7 8.0 62 3.6 SSE 11 15 6 8 1030.8 1030.8 0.0
22/01:30pm 15.7 13.7 7.2 57 4.2 SSW 7 11 4 6 1030.9 1030.9 0.0
22/01:00pm 15.0 12.7 7.3 60 3.8 WSW 9 15 5 8 1031.0 1031.0 0.0
22/12:30pm 14.6 12.6 7.2 61 3.6 SSE 7 13 4 7 1031.2 1031.2 0.0
22/12:00pm 14.5 12.5 7.1 61 3.6 SSE 7 17 4 9 1031.5 1031.5 0.0
22/11:30am 14.5 12.1 6.8 60 3.7 SE 9 15 5 8 1031.9 1031.9 0.0

Other Formats:

Comma delimited format used in spreadsheet applications
http://www.bom.gov.au/fwo/IDS60801/IDS60801.95677.axf

JavaScript Object Notation format (JSON) in row-major order
http://www.bom.gov.au/fwo/IDS60801/IDS60801.95677.json